Time;durP1;ratioP1;P1;durP2;ratioP2;P2;SDS_P1;SDS_P2;PMS_P1;PMS_P2;Temp;Humidity;BMP_temperature;BMP_pressure;BME280_temperature;BME280_humidity;BME280_pressure;Samples;Min_cycle;Max_cycle;Signal;HPM_P1;HPM_P2
2022/08/28 00:02:10;;;;;;;13.10;11.90;;;19.40;99.90;;;;;;5058212;28;20465;-67
2022/08/28 00:04:37;;;;;;;12.67;11.60;;;19.40;99.90;;;;;;5062219;28;20942;-68
2022/08/28 00:07:04;;;;;;;13.83;12.40;;;19.30;99.90;;;;;;5066706;28;20467;-68
2022/08/28 00:09:33;;;;;;;15.73;12.20;;;19.30;99.90;;;;;;5057086;28;20463;-68
2022/08/28 00:12:01;;;;;;;13.67;12.30;;;19.20;99.90;;;;;;5064566;28;20493;-67
2022/08/28 00:14:30;;;;;;;13.70;12.40;;;19.10;99.90;;;;;;5063892;28;20525;-68
2022/08/28 00:16:58;;;;;;;12.73;11.80;;;19.10;99.90;;;;;;5059464;28;20487;-68
2022/08/28 00:19:26;;;;;;;16.53;12.60;;;19.00;99.90;;;;;;5062843;28;20475;-67
2022/08/28 00:21:54;;;;;;;13.63;12.40;;;19.00;99.90;;;;;;5064294;28;20463;-68
2022/08/28 00:24:21;;;;;;;14.27;12.60;;;19.00;99.90;;;;;;5059859;28;20829;-68
2022/08/28 00:29:34;;;;;;;13.17;12.17;;;19.00;99.90;;;;;;5057268;28;21057;-67
2022/08/28 00:32:01;;;;;;;13.00;12.20;;;18.90;99.90;;;;;;5063690;28;20570;-67
2022/08/28 00:34:31;;;;;;;12.70;11.63;;;18.90;99.90;;;;;;5058097;28;20466;-67
2022/08/28 00:36:59;;;;;;;14.87;11.90;;;19.00;99.90;;;;;;5053601;28;20483;-68
2022/08/28 00:39:26;;;;;;;13.07;11.70;;;19.00;99.90;;;;;;5056974;28;20540;-67
2022/08/28 00:41:54;;;;;;;13.40;12.40;;;18.90;99.90;;;;;;5061753;28;20462;-68
2022/08/28 00:44:23;;;;;;;13.10;11.80;;;18.90;99.90;;;;;;5054888;28;20463;-68
2022/08/28 00:46:53;;;;;;;12.87;11.87;;;18.90;99.90;;;;;;5064719;28;20824;-66
2022/08/28 00:49:25;;;;;;;13.37;12.07;;;19.00;99.90;;;;;;5061019;28;20464;-67
2022/08/28 00:52:06;;;;;;;13.27;12.37;;;18.90;99.90;;;;;;5062868;28;20479;-67
2022/08/28 00:54:37;;;;;;;12.63;11.83;;;18.80;99.90;;;;;;5056992;28;20454;-66
2022/08/28 00:57:08;;;;;;;13.77;12.47;;;18.90;99.90;;;;;;5057006;28;20837;-68
2022/08/28 00:59:36;;;;;;;13.30;12.40;;;18.80;99.90;;;;;;5056174;28;21042;-68
2022/08/28 01:02:05;;;;;;;13.20;12.40;;;18.70;99.90;;;;;;5060757;28;20456;-67
2022/08/28 01:04:34;;;;;;;14.07;12.90;;;18.60;99.90;;;;;;5056668;28;21168;-67
2022/08/28 01:07:05;;;;;;;19.93;12.80;;;18.60;99.90;;;;;;5059916;28;20985;-68
2022/08/28 01:09:33;;;;;;;13.63;12.70;;;18.70;99.90;;;;;;5058279;28;20470;-67
2022/08/28 01:12:07;;;;;;;14.53;13.10;;;18.60;99.90;;;;;;5057373;28;20503;-68
2022/08/28 01:14:38;;;;;;;14.10;12.80;;;18.60;99.90;;;;;;5058496;28;20455;-67
2022/08/28 01:17:06;;;;;;;13.27;12.20;;;18.70;99.90;;;;;;5062935;28;21021;-67
2022/08/28 01:19:37;;;;;;;15.07;12.27;;;18.60;99.90;;;;;;5062091;28;20623;-68
2022/08/28 01:22:14;;;;;;;16.00;13.60;;;18.50;99.90;;;;;;5055122;28;20600;-66
2022/08/28 01:24:45;;;;;;;14.23;12.90;;;18.60;99.90;;;;;;5056493;28;20947;-68
2022/08/28 01:27:13;;;;;;;16.77;12.40;;;18.50;99.90;;;;;;5059956;28;20475;-66
2022/08/28 01:29:40;;;;;;;17.17;12.83;;;18.50;99.90;;;;;;5062023;28;20516;-66
2022/08/28 01:32:07;;;;;;;14.23;13.03;;;18.50;99.90;;;;;;5061892;28;20850;-67
2022/08/28 01:34:34;;;;;;;13.40;12.00;;;18.50;99.90;;;;;;5061674;28;20490;-67
2022/08/28 01:37:02;;;;;;;13.93;12.73;;;18.40;99.90;;;;;;5059996;28;20934;-66
2022/08/28 01:39:30;;;;;;;14.30;13.00;;;18.50;99.90;;;;;;5060008;28;20816;-66
2022/08/28 01:41:59;;;;;;;14.67;13.20;;;18.50;99.90;;;;;;5058890;28;21000;-66
2022/08/28 01:44:27;;;;;;;16.60;12.70;;;18.60;99.90;;;;;;5063481;28;20459;-67
2022/08/28 01:46:57;;;;;;;15.80;12.73;;;18.50;99.90;;;;;;5064073;28;20467;-67
2022/08/28 01:49:28;;;;;;;13.33;12.43;;;18.40;99.90;;;;;;5055326;28;20495;-68
2022/08/28 01:51:57;;;;;;;13.93;12.60;;;18.30;99.90;;;;;;5057711;28;20536;-66
2022/08/28 01:54:25;;;;;;;15.50;14.07;;;18.40;99.90;;;;;;5057891;28;20768;-67
2022/08/28 01:56:52;;;;;;;14.47;13.37;;;18.30;99.90;;;;;;5056035;28;20990;-67
2022/08/28 01:59:20;;;;;;;14.70;13.20;;;18.40;99.90;;;;;;5055194;28;20555;-67
2022/08/28 02:01:47;;;;;;;16.57;12.50;;;18.30;99.90;;;;;;5067803;28;20466;-68
2022/08/28 02:04:14;;;;;;;14.13;12.83;;;18.30;99.90;;;;;;5060144;28;20455;-67
2022/08/28 02:06:42;;;;;;;14.97;13.03;;;18.30;99.90;;;;;;5051017;28;20468;-66
2022/08/28 02:09:10;;;;;;;15.27;14.00;;;18.30;99.90;;;;;;5058913;28;20462;-66
2022/08/28 02:11:41;;;;;;;15.20;13.30;;;18.20;99.90;;;;;;5062523;28;20522;-66
2022/08/28 02:14:08;;;;;;;14.80;13.50;;;18.10;99.90;;;;;;5065384;28;20494;-66
2022/08/28 02:16:36;;;;;;;17.80;13.53;;;18.10;99.90;;;;;;5059605;28;20478;-66
2022/08/28 02:19:03;;;;;;;14.73;13.30;;;18.00;99.90;;;;;;5055992;28;20464;-67
2022/08/28 02:21:30;;;;;;;15.17;13.63;;;17.90;99.90;;;;;;5062907;28;20459;-68
2022/08/28 02:23:59;;;;;;;17.63;14.47;;;17.90;99.90;;;;;;5061477;28;20835;-66
2022/08/28 02:26:26;;;;;;;16.93;14.03;;;17.80;99.90;;;;;;5060008;28;20660;-66
2022/08/28 02:28:52;;;;;;;18.40;14.80;;;17.70;99.90;;;;;;5056382;28;20568;-66
2022/08/28 02:31:19;;;;;;;15.83;13.50;;;17.60;99.90;;;;;;5058731;28;20463;-66
2022/08/28 02:33:48;;;;;;;14.13;12.90;;;17.50;99.90;;;;;;5052364;28;20497;-66
2022/08/28 02:36:16;;;;;;;16.90;14.17;;;17.40;99.90;;;;;;5059830;28;20460;-67
2022/08/28 02:38:44;;;;;;;14.97;13.40;;;17.40;99.90;;;;;;5060357;28;20464;-67
2022/08/28 02:41:13;;;;;;;14.97;13.50;;;17.30;99.90;;;;;;5060515;28;20905;-66
2022/08/28 02:43:40;;;;;;;15.33;13.80;;;17.20;99.90;;;;;;5057930;28;20470;-67
2022/08/28 02:46:07;;;;;;;14.60;13.03;;;17.20;99.90;;;;;;5059429;28;20521;-66
2022/08/28 02:48:37;;;;;;;20.13;13.40;;;17.00;99.90;;;;;;5052462;28;20467;-67
2022/08/28 02:51:10;;;;;;;13.17;11.83;;;16.90;99.90;;;;;;5050191;28;20524;-66
2022/08/28 02:53:38;;;;;;;14.60;13.30;;;16.80;99.90;;;;;;5062593;28;21144;-65
2022/08/28 02:56:07;;;;;;;17.97;14.03;;;16.70;99.90;;;;;;5063843;28;20487;-67
2022/08/28 02:58:34;;;;;;;15.30;13.80;;;16.60;99.90;;;;;;5059412;28;20466;-66
2022/08/28 03:01:02;;;;;;;17.50;13.80;;;16.50;99.90;;;;;;5053191;28;20499;-66
2022/08/28 03:03:29;;;;;;;17.40;14.00;;;16.50;99.90;;;;;;5063956;28;20802;-67
2022/08/28 03:05:58;;;;;;;15.00;13.50;;;16.40;99.90;;;;;;5057193;28;20882;-65
2022/08/28 03:08:27;;;;;;;14.00;12.70;;;16.40;99.90;;;;;;5065462;28;20458;-66
2022/08/28 03:10:56;;;;;;;14.37;13.10;;;16.30;99.90;;;;;;5059930;28;20447;-66
2022/08/28 03:13:24;;;;;;;15.40;12.97;;;16.30;99.90;;;;;;5059607;28;20506;-66
2022/08/28 03:15:51;;;;;;;19.80;13.63;;;16.20;99.90;;;;;;5068524;28;20481;-66
2022/08/28 03:18:19;;;;;;;18.13;13.03;;;16.20;99.90;;;;;;5078068;28;21131;-66
2022/08/28 03:20:48;;;;;;;17.80;14.03;;;16.10;99.90;;;;;;5087122;28;20481;-65
2022/08/28 03:23:27;;;;;;;18.87;13.63;;;16.00;99.90;;;;;;5082569;28;20458;-66
2022/08/28 03:25:58;;;;;;;14.87;13.30;;;16.00;99.90;;;;;;5082878;28;20550;-67
2022/08/28 03:28:27;;;;;;;20.40;13.03;;;16.10;99.90;;;;;;5078002;28;20474;-66
2022/08/28 03:30:53;;;;;;;16.97;13.97;;;16.10;99.90;;;;;;5079682;28;20833;-66
2022/08/28 03:33:21;;;;;;;15.57;13.60;;;16.10;99.90;;;;;;5080836;28;20577;-66
2022/08/28 03:35:49;;;;;;;13.80;12.23;;;16.10;99.90;;;;;;5079186;28;20624;-66
2022/08/28 03:38:17;;;;;;;19.77;13.80;;;16.00;99.90;;;;;;5080766;28;20915;-65
2022/08/28 03:40:46;;;;;;;17.03;13.30;;;16.00;99.90;;;;;;5083637;28;20470;-66
2022/08/28 03:43:17;;;;;;;15.10;13.23;;;16.00;99.90;;;;;;5078517;28;20454;-66
2022/08/28 03:45:53;;;;;;;17.97;12.73;;;16.00;99.90;;;;;;5079930;28;20467;-67
2022/08/28 03:48:20;;;;;;;20.50;13.67;;;16.00;99.90;;;;;;5082413;28;20756;-66
2022/08/28 03:50:49;;;;;;;17.97;13.63;;;16.00;99.90;;;;;;5088419;28;20468;-67
2022/08/28 03:53:16;;;;;;;13.67;12.33;;;16.00;99.90;;;;;;5081424;28;20481;-66
2022/08/28 03:55:43;;;;;;;16.43;13.33;;;15.90;99.90;;;;;;5082260;28;20566;-67
2022/08/28 03:58:11;;;;;;;22.10;15.00;;;15.70;99.90;;;;;;5082335;28;20477;-66
2022/08/28 04:00:40;;;;;;;20.13;14.23;;;15.70;99.90;;;;;;5082074;28;20541;-66
2022/08/28 04:03:07;;;;;;;16.63;13.30;;;15.70;99.90;;;;;;5056376;28;20524;-68
2022/08/28 04:05:34;;;;;;;14.47;13.03;;;15.60;99.90;;;;;;5050461;28;20467;-68
2022/08/28 04:08:01;;;;;;;14.13;12.80;;;15.50;99.90;;;;;;5051152;28;20954;-68
2022/08/28 04:10:31;;;;;;;16.03;13.97;;;15.50;99.90;;;;;;5051493;28;20944;-68
2022/08/28 04:12:59;;;;;;;14.53;13.03;;;15.40;99.90;;;;;;5049979;28;21158;-67
2022/08/28 04:15:26;;;;;;;15.60;12.50;;;15.40;99.90;;;;;;5043795;28;20488;-68
2022/08/28 04:17:55;;;;;;;15.23;12.50;;;15.30;99.90;;;;;;5031349;28;20466;-67
2022/08/28 04:20:22;;;;;;;19.37;12.70;;;15.20;99.90;;;;;;5030369;28;21008;-66
2022/08/28 04:22:50;;;;;;;18.40;12.87;;;15.20;99.90;;;;;;5030820;28;20475;-67
2022/08/28 04:25:17;;;;;;;17.23;11.90;;;15.10;99.90;;;;;;5030336;28;20452;-66
2022/08/28 04:27:44;;;;;;;13.50;12.10;;;15.10;99.90;;;;;;5028651;28;20460;-67
2022/08/28 04:30:12;;;;;;;16.43;12.20;;;15.00;99.90;;;;;;5029431;28;20785;-68
2022/08/28 04:32:39;;;;;;;15.77;13.50;;;15.00;99.90;;;;;;5030108;28;20505;-67
2022/08/28 04:35:10;;;;;;;16.33;12.17;;;14.90;99.90;;;;;;5030497;28;20486;-66
2022/08/28 04:37:38;;;;;;;18.00;12.30;;;14.90;99.90;;;;;;5029395;28;20981;-67
2022/08/28 04:40:07;;;;;;;16.60;12.43;;;14.90;99.90;;;;;;5030314;28;20920;-67
2022/08/28 04:42:35;;;;;;;15.73;12.30;;;14.90;99.90;;;;;;5030243;28;20456;-66
2022/08/28 04:45:02;;;;;;;16.90;13.07;;;14.80;99.90;;;;;;5028088;28;20797;-67
2022/08/28 04:47:29;;;;;;;14.53;12.33;;;14.80;99.90;;;;;;5030108;28;20583;-67
2022/08/28 04:49:57;;;;;;;22.10;12.53;;;14.80;99.90;;;;;;5028731;28;20491;-66
2022/08/28 04:52:25;;;;;;;16.10;12.33;;;14.70;99.90;;;;;;5029593;28;20462;-66
2022/08/28 04:54:52;;;;;;;14.70;13.17;;;14.70;99.90;;;;;;5029753;28;20471;-67
2022/08/28 04:57:19;;;;;;;27.47;13.90;;;14.70;99.90;;;;;;5029992;28;20491;-67
2022/08/28 04:59:46;;;;;;;14.70;12.80;;;14.70;99.90;;;;;;5029128;28;20494;-66
2022/08/28 05:02:13;;;;;;;15.00;12.80;;;14.60;99.90;;;;;;5012084;28;20558;-67
2022/08/28 05:04:40;;;;;;;16.40;12.60;;;14.70;99.90;;;;;;5029575;28;20790;-66
2022/08/28 05:07:07;;;;;;;13.47;11.23;;;14.70;99.90;;;;;;5029376;28;20468;-67
2022/08/28 05:09:36;;;;;;;14.17;11.80;;;14.80;99.90;;;;;;5029443;28;21290;-66
2022/08/28 05:12:05;;;;;;;20.77;12.50;;;14.80;99.90;;;;;;5029589;28;20462;-67
2022/08/28 05:14:32;;;;;;;19.40;13.77;;;14.80;99.90;;;;;;5029297;28;20514;-66
2022/08/28 05:16:59;;;;;;;16.37;12.00;;;14.80;99.90;;;;;;5028876;28;20499;-67
2022/08/28 05:19:27;;;;;;;14.83;11.10;;;14.90;99.90;;;;;;5028017;28;20475;-67
2022/08/28 05:21:54;;;;;;;17.13;11.80;;;14.90;99.90;;;;;;5029179;28;20462;-66
2022/08/28 05:24:22;;;;;;;13.83;12.60;;;15.00;99.90;;;;;;5029225;28;20472;-68
2022/08/28 05:26:50;;;;;;;14.33;12.20;;;15.10;99.90;;;;;;5029492;28;20805;-67
2022/08/28 05:29:17;;;;;;;16.93;12.30;;;15.20;99.90;;;;;;5028466;28;20468;-66
2022/08/28 05:31:44;;;;;;;14.33;12.83;;;15.20;99.90;;;;;;5028959;28;20452;-67
2022/08/28 05:34:11;;;;;;;23.03;14.53;;;15.30;99.90;;;;;;5029220;28;21151;-66
2022/08/28 05:36:39;;;;;;;16.80;12.93;;;15.30;99.90;;;;;;5029394;28;20460;-67
2022/08/28 05:39:08;;;;;;;14.57;12.47;;;15.40;99.90;;;;;;5028797;28;20804;-66
2022/08/28 05:41:36;;;;;;;17.20;13.10;;;15.50;99.90;;;;;;5029455;28;20478;-68
2022/08/28 05:44:08;;;;;;;14.20;13.07;;;15.60;99.90;;;;;;5028553;28;20468;-68
2022/08/28 05:46:38;;;;;;;20.43;13.93;;;15.70;99.90;;;;;;5029335;28;20459;-67
2022/08/28 05:49:06;;;;;;;14.50;13.03;;;15.90;99.90;;;;;;5029114;28;20566;-67
2022/08/28 05:51:34;;;;;;;17.67;12.90;;;15.90;99.90;;;;;;5028583;28;20963;-67
2022/08/28 05:54:02;;;;;;;13.80;12.50;;;16.10;99.90;;;;;;5029971;28;21061;-66
2022/08/28 05:56:31;;;;;;;18.43;13.20;;;16.20;99.90;;;;;;5029788;28;20487;-69
2022/08/28 05:59:00;;;;;;;18.77;13.07;;;16.30;99.90;;;;;;5028186;28;20470;-67
2022/08/28 06:01:30;;;;;;;17.03;13.03;;;16.40;99.90;;;;;;5028814;28;20470;-67
2022/08/28 06:03:59;;;;;;;15.33;13.10;;;16.50;99.90;;;;;;5028789;28;20487;-67
2022/08/28 06:06:28;;;;;;;19.27;13.30;;;16.60;99.90;;;;;;5027869;28;20474;-68
2022/08/28 06:08:58;;;;;;;18.77;12.80;;;16.70;99.90;;;;;;5027952;28;20926;-66
2022/08/28 06:11:24;;;;;;;19.53;13.23;;;16.80;99.90;;;;;;5028969;28;20470;-68
2022/08/28 06:13:51;;;;;;;19.97;13.50;;;16.90;99.90;;;;;;5028594;28;20491;-68
2022/08/28 06:16:18;;;;;;;16.87;12.97;;;17.00;99.90;;;;;;5028054;28;21058;-68
2022/08/28 06:18:47;;;;;;;18.27;13.20;;;17.10;99.90;;;;;;5028795;28;20467;-68
2022/08/28 06:21:14;;;;;;;17.67;13.80;;;17.20;99.90;;;;;;5028396;28;20518;-67
2022/08/28 06:23:43;;;;;;;15.60;13.23;;;17.30;99.90;;;;;;5028386;28;20468;-69
2022/08/28 06:26:10;;;;;;;14.87;13.33;;;17.30;99.90;;;;;;5028431;28;21010;-68
2022/08/28 06:28:37;;;;;;;31.10;15.37;;;17.40;99.90;;;;;;5028807;28;20607;-68
2022/08/28 06:31:05;;;;;;;21.17;13.50;;;17.50;99.90;;;;;;5028109;28;20486;-67
2022/08/28 06:33:32;;;;;;;18.97;13.40;;;17.60;99.90;;;;;;5028585;28;20592;-67
2022/08/28 06:36:04;;;;;;;22.77;13.00;;;17.50;99.90;;;;;;5028147;28;20691;-66
2022/08/28 06:38:31;;;;;;;15.23;13.73;;;17.60;99.90;;;;;;5032155;28;20467;-66
2022/08/28 06:40:59;;;;;;;18.13;13.53;;;17.60;99.90;;;;;;5053344;28;20459;-66
2022/08/28 06:43:28;;;;;;;15.37;13.70;;;17.80;99.90;;;;;;5062081;28;20575;-67
2022/08/28 06:45:57;;;;;;;18.63;13.20;;;17.90;99.90;;;;;;5055908;28;20474;-65
2022/08/28 06:48:26;;;;;;;15.67;13.80;;;17.80;99.90;;;;;;5031948;28;20817;-67
2022/08/28 06:50:54;;;;;;;15.33;13.80;;;17.90;99.90;;;;;;5031913;28;20459;-67
2022/08/28 06:53:25;;;;;;;16.10;13.97;;;18.10;99.90;;;;;;5031223;28;20495;-67
2022/08/28 06:55:58;;;;;;;17.63;14.53;;;18.30;99.90;;;;;;5032684;28;20793;-69
2022/08/28 06:58:26;;;;;;;14.60;13.20;;;18.50;99.90;;;;;;5032946;28;20587;-66
2022/08/28 07:01:01;;;;;;;15.37;13.70;;;18.30;99.90;;;;;;5032328;28;20455;-66
2022/08/28 07:03:29;;;;;;;15.63;13.00;;;18.40;99.90;;;;;;5032470;28;20474;-68
2022/08/28 07:05:58;;;;;;;19.40;13.60;;;18.50;99.90;;;;;;5032894;28;20538;-66
2022/08/28 07:08:28;;;;;;;13.73;12.60;;;18.60;99.90;;;;;;5031356;28;20997;-66
2022/08/28 07:10:55;;;;;;;15.33;13.57;;;18.80;99.90;;;;;;5031732;28;20463;-66
2022/08/28 07:13:23;;;;;;;16.33;13.47;;;18.80;99.90;;;;;;5031405;28;20486;-68
2022/08/28 07:15:50;;;;;;;16.10;14.50;;;18.90;99.90;;;;;;5031644;28;20486;-66
2022/08/28 07:18:18;;;;;;;17.90;13.77;;;19.00;99.90;;;;;;5030876;28;20939;-66
2022/08/28 07:20:45;;;;;;;19.10;14.50;;;19.00;99.90;;;;;;5030760;28;20458;-66
2022/08/28 07:23:12;;;;;;;15.80;14.30;;;19.10;99.90;;;;;;5031287;28;20468;-67
2022/08/28 07:25:41;;;;;;;14.27;12.90;;;19.10;99.90;;;;;;5031635;28;20622;-68
2022/08/28 07:28:09;;;;;;;15.07;13.60;;;19.20;99.90;;;;;;5030918;28;20455;-67
2022/08/28 07:30:35;;;;;;;15.70;14.30;;;19.10;99.90;;;;;;5031381;28;20534;-66
2022/08/28 07:33:02;;;;;;;16.50;14.20;;;19.40;99.90;;;;;;5029954;28;20490;-66
2022/08/28 07:35:29;;;;;;;16.50;14.40;;;19.60;99.90;;;;;;5030838;28;22380;-66
2022/08/28 07:37:57;;;;;;;15.17;13.77;;;19.50;99.90;;;;;;5031048;28;20487;-67
2022/08/28 07:40:24;;;;;;;15.93;14.50;;;19.60;99.90;;;;;;5031119;28;20460;-67
2022/08/28 07:45:36;;;;;;;15.23;14.13;;;19.70;99.90;;;;;;5030409;28;20462;-67
2022/08/28 07:48:07;;;;;;;15.70;14.30;;;20.00;99.90;;;;;;5029906;28;20510;-66
2022/08/28 07:50:34;;;;;;;14.37;13.07;;;19.90;99.90;;;;;;5028474;28;21431;-68
2022/08/28 07:53:01;;;;;;;15.33;13.90;;;19.70;99.90;;;;;;5030827;28;20455;-65
2022/08/28 07:55:29;;;;;;;17.23;14.30;;;19.90;99.90;;;;;;5030461;28;20488;-66
2022/08/28 07:57:58;;;;;;;15.07;13.70;;;19.70;99.90;;;;;;5030438;28;20488;-66
2022/08/28 08:00:25;;;;;;;17.63;14.20;;;19.80;99.90;;;;;;5028259;28;20798;-66
2022/08/28 08:02:52;;;;;;;17.30;13.77;;;19.60;99.90;;;;;;5028176;28;20506;-66
2022/08/28 08:05:18;;;;;;;14.83;13.50;;;19.60;99.90;;;;;;5029066;28;20458;-66
2022/08/28 08:07:46;;;;;;;15.73;14.13;;;19.40;99.90;;;;;;5029487;28;20476;-67
2022/08/28 08:10:13;;;;;;;22.90;14.57;;;19.40;99.90;;;;;;5030084;28;20460;-67
2022/08/28 08:12:41;;;;;;;21.60;14.53;;;19.40;99.90;;;;;;5029619;28;20468;-66
2022/08/28 08:15:10;;;;;;;19.23;14.33;;;19.60;99.90;;;;;;5027720;28;20655;-67
2022/08/28 08:17:38;;;;;;;19.63;14.70;;;19.80;99.90;;;;;;5029607;28;20472;-67
2022/08/28 08:20:06;;;;;;;18.00;14.00;;;20.10;99.90;;;;;;5030473;28;20466;-68
2022/08/28 08:22:33;;;;;;;15.83;14.33;;;19.90;99.90;;;;;;5029289;28;20563;-68
2022/08/28 08:25:02;;;;;;;16.90;15.20;;;20.00;99.90;;;;;;5029643;28;20455;-68
2022/08/28 08:27:29;;;;;;;15.67;14.20;;;19.90;99.90;;;;;;5031216;28;20463;-67
2022/08/28 08:29:56;;;;;;;18.13;15.90;;;19.90;99.90;;;;;;5030498;28;20464;-67
2022/08/28 08:32:24;;;;;;;19.60;13.83;;;20.00;99.90;;;;;;5029840;28;20832;-67
2022/08/28 08:34:54;;;;;;;16.20;14.57;;;20.00;99.90;;;;;;5029896;28;20580;-67
2022/08/28 08:37:21;;;;;;;15.67;14.20;;;20.00;99.90;;;;;;5030068;28;20467;-67
2022/08/28 08:39:49;;;;;;;16.40;15.00;;;19.70;99.90;;;;;;5028875;28;20836;-67
2022/08/28 08:42:25;;;;;;;18.33;15.30;;;19.40;99.90;;;;;;5029913;28;20495;-68
2022/08/28 08:44:55;;;;;;;14.90;13.80;;;19.40;99.90;;;;;;5029397;28;20463;-67
2022/08/28 08:47:30;;;;;;;16.30;14.77;;;19.30;99.90;;;;;;5029000;28;20733;-67
2022/08/28 08:49:59;;;;;;;17.10;15.37;;;19.30;99.90;;;;;;5028835;28;20661;-66
2022/08/28 08:52:38;;;;;;;15.97;14.60;;;19.40;99.90;;;;;;5028436;28;20483;-68
2022/08/28 08:55:16;;;;;;;19.53;14.27;;;19.50;99.90;;;;;;5030056;28;20503;-67
2022/08/28 08:57:45;;;;;;;14.60;13.50;;;19.70;99.90;;;;;;5028989;28;20506;-67
2022/08/28 09:00:14;;;;;;;15.80;14.30;;;19.70;99.90;;;;;;5029444;28;20467;-67
2022/08/28 09:02:49;;;;;;;18.33;14.63;;;19.70;99.90;;;;;;5030567;28;20482;-67
2022/08/28 09:05:20;;;;;;;15.20;13.87;;;20.40;99.90;;;;;;5028111;28;21220;-67
2022/08/28 09:07:55;;;;;;;15.13;14.00;;;21.20;99.90;;;;;;5029693;28;20455;-67
2022/08/28 09:10:23;;;;;;;15.97;14.53;;;22.10;99.90;;;;;;5029290;28;20486;-66
2022/08/28 09:12:57;;;;;;;15.23;13.97;;;22.50;99.90;;;;;;5029455;28;20612;-67
2022/08/28 09:15:30;;;;;;;15.77;14.37;;;23.10;99.90;;;;;;5029491;28;20820;-67
2022/08/28 09:18:10;;;;;;;15.47;13.97;;;22.90;99.90;;;;;;5029404;28;20473;-67
2022/08/28 09:20:37;;;;;;;15.07;13.83;;;23.10;99.90;;;;;;5029016;28;21242;-67
2022/08/28 09:23:05;;;;;;;16.37;14.20;;;23.10;99.90;;;;;;5028875;28;20464;-67
2022/08/28 09:25:54;;;;;;;16.27;14.80;;;22.80;99.90;;;;;;5029093;28;20998;-68
2022/08/28 09:28:24;;;;;;;17.10;14.20;;;22.80;99.90;;;;;;5028141;28;20469;-67
2022/08/28 09:30:58;;;;;;;14.90;13.80;;;22.90;99.90;;;;;;5028903;28;20912;-68
2022/08/28 09:33:35;;;;;;;15.17;14.10;;;23.30;99.90;;;;;;5028780;28;20467;-66
2022/08/28 09:36:31;;;;;;;15.73;14.57;;;23.60;99.90;;;;;;5029610;28;20491;-67
2022/08/28 09:39:11;;;;;;;15.00;13.70;;;24.00;99.90;;;;;;5028903;28;20475;-67
2022/08/28 09:44:30;;;;;;;15.23;13.87;;;24.00;99.90;;;;;;5029134;28;20555;-67
2022/08/28 09:46:58;;;;;;;15.73;14.23;;;24.10;99.90;;;;;;5028702;28;21211;-66
2022/08/28 09:49:28;;;;;;;16.23;13.97;;;24.10;99.60;;;;;;5027592;28;20517;-67
2022/08/28 09:51:58;;;;;;;15.57;14.20;;;23.90;99.70;;;;;;5029815;28;20464;-67
2022/08/28 09:54:31;;;;;;;15.43;14.13;;;23.30;99.90;;;;;;5028197;28;20850;-67
2022/08/28 09:56:59;;;;;;;16.30;14.80;;;23.80;99.90;;;;;;5028836;28;20479;-67
2022/08/28 09:59:28;;;;;;;16.60;15.20;;;24.80;98.60;;;;;;5028675;28;20467;-68
2022/08/28 10:02:11;;;;;;;16.27;14.97;;;25.10;97.30;;;;;;5028117;28;20537;-67
2022/08/28 10:04:54;;;;;;;15.77;14.47;;;24.80;96.40;;;;;;5027448;28;20988;-69
2022/08/28 10:07:28;;;;;;;15.57;14.47;;;24.70;96.50;;;;;;5028331;28;20463;-67
2022/08/28 10:10:09;;;;;;;16.73;15.20;;;24.70;96.30;;;;;;5028196;28;20865;-68
2022/08/28 10:12:44;;;;;;;17.10;15.30;;;25.10;96.60;;;;;;5030169;28;21287;-67
2022/08/28 10:15:19;;;;;;;16.50;15.03;;;25.90;95.60;;;;;;5033735;28;21252;-68
2022/08/28 10:18:00;;;;;;;15.73;14.30;;;25.80;94.80;;;;;;5052676;28;20497;-68
2022/08/28 10:20:39;;;;;;;17.70;13.97;;;25.50;94.30;;;;;;5052489;28;20458;-67
2022/08/28 10:23:15;;;;;;;16.77;14.87;;;25.60;94.40;;;;;;5052813;28;20465;-67
2022/08/28 10:25:51;;;;;;;13.83;13.00;;;25.90;92.80;;;;;;5051840;28;20509;-68
2022/08/28 10:28:34;;;;;;;14.93;13.93;;;25.50;92.10;;;;;;5053088;28;20457;-68
2022/08/28 10:31:10;;;;;;;14.90;13.77;;;25.20;93.30;;;;;;5052488;28;20469;-68
2022/08/28 10:33:51;;;;;;;14.60;13.50;;;25.70;90.90;;;;;;5052306;28;20466;-69
2022/08/28 10:36:23;;;;;;;15.10;13.90;;;25.40;91.10;;;;;;5052189;28;20512;-68
2022/08/28 10:39:01;;;;;;;13.90;13.00;;;25.40;90.50;;;;;;5051326;28;20463;-67
2022/08/28 10:41:34;;;;;;;14.70;13.60;;;25.10;91.00;;;;;;5052036;28;20960;-68
2022/08/28 10:44:03;;;;;;;19.77;14.00;;;25.50;90.30;;;;;;5050943;28;20457;-68
2022/08/28 10:46:35;;;;;;;15.90;14.07;;;25.50;90.10;;;;;;5050633;28;20463;-68
2022/08/28 10:49:08;;;;;;;14.47;13.47;;;25.70;90.10;;;;;;5052044;28;20459;-68
2022/08/28 10:51:41;;;;;;;15.20;13.90;;;25.70;90.50;;;;;;5050916;28;20467;-67
2022/08/28 10:54:20;;;;;;;15.73;13.90;;;25.70;90.40;;;;;;5051603;28;20478;-67
2022/08/28 10:56:53;;;;;;;14.93;13.67;;;25.40;90.50;;;;;;5050677;28;20482;-67
2022/08/28 10:59:21;;;;;;;16.40;14.70;;;25.80;90.60;;;;;;5045575;28;20482;-67
2022/08/28 11:01:48;;;;;;;14.60;13.63;;;26.40;88.90;;;;;;5048376;28;21029;-67
2022/08/28 11:04:19;;;;;;;14.83;13.60;;;26.70;88.40;;;;;;5051166;28;20982;-67
2022/08/28 11:06:52;;;;;;;15.73;14.07;;;26.70;87.30;;;;;;5050676;28;20910;-67
2022/08/28 11:09:30;;;;;;;14.00;13.00;;;26.70;87.40;;;;;;5050538;28;20470;-67
2022/08/28 11:11:58;;;;;;;14.50;13.53;;;25.80;86.60;;;;;;5050594;28;20472;-67
2022/08/28 11:14:32;;;;;;;14.03;12.83;;;26.00;86.40;;;;;;5050406;28;20461;-68
2022/08/28 11:17:03;;;;;;;13.43;12.53;;;26.00;84.20;;;;;;5050833;28;20559;-68
2022/08/28 11:19:57;;;;;;;14.50;13.37;;;25.70;86.50;;;;;;5049929;28;20564;-68
2022/08/28 11:22:28;;;;;;;14.10;13.00;;;26.00;86.40;;;;;;5050102;28;20474;-68
2022/08/28 11:25:01;;;;;;;13.73;12.80;;;26.20;84.30;;;;;;5050620;28;20711;-69
2022/08/28 11:27:32;;;;;;;14.80;13.43;;;26.90;83.00;;;;;;5049918;28;20455;-68
2022/08/28 11:30:30;;;;;;;14.47;12.90;;;27.30;82.20;;;;;;5050611;28;20466;-68
2022/08/28 11:33:02;;;;;;;13.77;12.47;;;27.70;81.10;;;;;;5050530;28;21023;-67
2022/08/28 11:35:39;;;;;;;13.50;12.47;;;27.50;80.20;;;;;;5049751;28;20482;-68
2022/08/28 11:38:09;;;;;;;13.20;12.10;;;27.40;78.40;;;;;;5048974;28;20457;-69
2022/08/28 11:40:53;;;;;;;13.63;12.80;;;27.30;78.80;;;;;;5049464;28;20471;-68
2022/08/28 11:43:36;;;;;;;15.13;13.57;;;28.00;76.50;;;;;;5048766;28;20536;-67
2022/08/28 11:46:26;;;;;;;14.00;13.00;;;28.60;75.50;;;;;;5048921;28;20486;-68
2022/08/28 11:48:55;;;;;;;13.00;12.10;;;29.00;71.80;;;;;;5039270;28;20478;-68
2022/08/28 11:51:43;;;;;;;13.67;12.70;;;28.10;72.30;;;;;;5050770;28;20550;-68
2022/08/28 11:54:25;;;;;;;14.07;13.07;;;28.50;71.90;;;;;;5050738;28;20462;-68
2022/08/28 11:57:03;;;;;;;13.77;12.67;;;29.60;69.20;;;;;;5050776;28;20475;-67
2022/08/28 11:59:57;;;;;;;13.60;12.57;;;29.60;66.00;;;;;;5049641;28;20969;-68
2022/08/28 12:02:51;;;;;;;13.33;12.27;;;28.50;65.50;;;;;;5051476;28;21169;-67
2022/08/28 12:05:53;;;;;;;12.67;11.77;;;28.50;67.30;;;;;;5050406;28;20894;-68
2022/08/28 12:09:11;;;;;;;12.30;11.60;;;28.20;68.30;;;;;;5049677;28;20844;-68
2022/08/28 12:11:59;;;;;;;13.13;12.27;;;28.70;66.80;;;;;;5050204;28;20467;-68
2022/08/28 12:15:06;;;;;;;13.20;12.40;;;29.00;66.80;;;;;;5050016;28;20465;-68
2022/08/28 12:17:56;;;;;;;13.10;12.20;;;30.10;65.20;;;;;;5050605;28;20458;-68
2022/08/28 12:20:40;;;;;;;13.17;11.93;;;30.50;61.80;;;;;;5043718;28;20813;-68
2022/08/28 12:23:32;;;;;;;12.70;12.00;;;30.20;59.80;;;;;;5048410;28;20977;-68
2022/08/28 12:26:02;;;;;;;14.17;12.80;;;28.80;60.40;;;;;;5063639;28;20458;-68
2022/08/28 12:28:36;;;;;;;12.73;11.90;;;28.60;62.60;;;;;;5081386;28;20509;-69
2022/08/28 12:32:10;;;;;;;14.00;12.97;;;29.20;59.90;;;;;;5063684;28;22442;-68
2022/08/28 12:34:18;;;;;;;12.73;11.80;;;29.50;58.40;;;;;;5048211;28;20462;-68
2022/08/28 12:36:45;;;;;;;12.40;11.70;;;29.30;58.10;;;;;;5049407;28;20502;-68
2022/08/28 12:39:18;;;;;;;13.87;12.50;;;29.20;57.60;;;;;;5049337;28;20458;-68
2022/08/28 12:41:45;;;;;;;12.57;11.77;;;28.50;59.30;;;;;;5049658;28;20474;-68
2022/08/28 12:44:14;;;;;;;12.87;12.10;;;29.30;58.60;;;;;;5049455;28;20532;-68
2022/08/28 12:46:43;;;;;;;13.03;12.33;;;30.30;57.50;;;;;;5048589;28;21001;-68
2022/08/28 12:49:27;;;;;;;12.47;11.77;;;30.20;55.50;;;;;;5049376;28;20471;-69
2022/08/28 12:52:11;;;;;;;12.67;11.50;;;30.10;56.00;;;;;;5045328;28;20475;-69
2022/08/28 12:54:38;;;;;;;12.40;11.50;;;30.60;55.50;;;;;;5049050;28;20458;-69
2022/08/28 12:57:07;;;;;;;12.63;11.67;;;31.20;55.10;;;;;;5049608;28;20502;-68